createdAt,value
2022-12-18T00:01:21.807Z,46.67
2022-12-18T00:03:48.756Z,44.40
2022-12-18T00:06:16.237Z,42.10
2022-12-18T00:08:43.888Z,41.00
2022-12-18T00:11:17.140Z,42.63
2022-12-18T00:13:43.734Z,40.47
2022-12-18T00:16:13.724Z,44.87
2022-12-18T00:18:41.158Z,42.17
2022-12-18T00:21:11.139Z,47.00
2022-12-18T00:23:38.451Z,46.13
2022-12-18T00:26:08.755Z,40.33
2022-12-18T00:28:35.228Z,36.63
2022-12-18T00:31:07.912Z,42.70
2022-12-18T00:33:35.269Z,43.87
2022-12-18T00:36:07.347Z,45.57
2022-12-18T00:38:34.627Z,43.30
2022-12-18T00:41:01.222Z,42.27
2022-12-18T00:43:27.997Z,42.53
2022-12-18T00:45:54.913Z,47.10
2022-12-18T00:48:21.906Z,44.80
2022-12-18T00:50:49.496Z,40.37
2022-12-18T00:53:16.254Z,43.87
2022-12-18T00:55:43.680Z,47.70
2022-12-18T00:58:11.849Z,46.30
2022-12-18T01:00:39.065Z,40.90
2022-12-18T01:03:06.769Z,45.40
2022-12-18T01:05:33.819Z,44.60
2022-12-18T01:08:00.451Z,45.63
2022-12-18T01:10:27.061Z,40.57
2022-12-18T01:12:53.510Z,39.93
2022-12-18T01:15:21.448Z,44.17
2022-12-18T01:17:47.943Z,41.00
2022-12-18T01:20:14.612Z,41.67
2022-12-18T01:22:41.093Z,39.80
2022-12-18T01:25:08.753Z,44.90
2022-12-18T01:27:35.449Z,42.90
2022-12-18T01:30:02.075Z,42.17
2022-12-18T01:32:31.652Z,40.73
2022-12-18T01:34:58.233Z,39.73
2022-12-18T01:37:24.713Z,41.80
2022-12-18T01:39:53.284Z,42.70
2022-12-18T01:42:19.805Z,40.93
2022-12-18T01:44:58.410Z,37.53
2022-12-18T01:47:27.112Z,46.40
2022-12-18T01:49:54.298Z,37.20
2022-12-18T01:52:21.277Z,49.17
2022-12-18T01:54:48.906Z,45.10
2022-12-18T01:57:16.045Z,43.73
2022-12-18T01:59:44.277Z,39.93
2022-12-18T02:02:11.268Z,44.50
2022-12-18T02:04:37.882Z,38.93
2022-12-18T02:07:12.169Z,41.97
2022-12-18T02:09:49.776Z,42.97
2022-12-18T02:12:21.342Z,42.57
2022-12-18T02:14:59.652Z,42.40
2022-12-18T02:17:40.373Z,40.40
2022-12-18T02:20:31.403Z,43.93
2022-12-18T02:23:33.465Z,37.70
2022-12-18T02:26:09.103Z,49.73
2022-12-18T02:28:49.797Z,44.53
2022-12-18T02:31:20.810Z,43.17
2022-12-18T02:33:48.235Z,46.33
2022-12-18T02:36:16.667Z,43.53
2022-12-18T02:38:44.393Z,45.60
2022-12-18T02:41:11.420Z,45.93
2022-12-18T02:43:38.388Z,38.57
2022-12-18T02:46:30.255Z,43.57
2022-12-18T02:49:05.155Z,48.23
2022-12-18T02:51:59.154Z,41.47
2022-12-18T02:54:32.019Z,46.67
2022-12-18T02:57:02.283Z,42.50
2022-12-18T02:59:46.499Z,47.30
2022-12-18T03:02:21.756Z,45.43
2022-12-18T03:05:31.695Z,40.97
2022-12-18T03:08:02.505Z,49.23
2022-12-18T03:10:31.182Z,42.07
2022-12-18T03:13:04.870Z,43.20
2022-12-18T03:15:47.265Z,43.70
2022-12-18T03:18:23.757Z,42.10
2022-12-18T03:21:31.029Z,40.87
2022-12-18T03:23:57.910Z,43.60
2022-12-18T03:26:26.360Z,45.43
2022-12-18T03:28:59.557Z,47.80
2022-12-18T03:31:27.336Z,42.30
2022-12-18T03:33:56.222Z,47.70
2022-12-18T03:36:23.511Z,42.47
2022-12-18T03:38:50.768Z,39.90
2022-12-18T03:41:27.630Z,46.50
2022-12-18T03:44:05.485Z,44.50
2022-12-18T03:47:36.190Z,47.80
2022-12-18T03:50:12.675Z,41.23
2022-12-18T03:52:47.559Z,39.73
2022-12-18T03:55:14.122Z,46.83
2022-12-18T03:57:42.393Z,44.43
2022-12-18T04:00:14.197Z,37.17
2022-12-18T04:02:46.181Z,43.30
2022-12-18T04:05:13.442Z,40.20
2022-12-18T04:07:40.937Z,52.33
2022-12-18T04:10:08.803Z,41.83
2022-12-18T04:12:35.293Z,42.80
2022-12-18T04:15:01.873Z,52.97
2022-12-18T04:17:28.464Z,42.63
2022-12-18T04:19:54.934Z,44.63
2022-12-18T04:22:21.854Z,38.67
2022-12-18T04:24:48.313Z,46.10
2022-12-18T04:27:15.027Z,46.40
2022-12-18T04:29:41.859Z,38.37
2022-12-18T04:32:08.909Z,38.37
2022-12-18T04:34:35.669Z,47.23
2022-12-18T04:37:02.163Z,45.83
2022-12-18T04:39:28.821Z,42.93
2022-12-18T04:41:55.579Z,36.90
2022-12-18T04:44:22.533Z,39.37
2022-12-18T04:46:49.111Z,45.17
2022-12-18T04:49:15.600Z,41.57
2022-12-18T04:51:42.154Z,40.57
2022-12-18T04:54:08.824Z,50.13
2022-12-18T04:56:35.277Z,37.00
2022-12-18T04:59:01.755Z,39.00
2022-12-18T05:01:34.258Z,38.47
2022-12-18T05:04:01.947Z,41.43
2022-12-18T05:06:28.864Z,44.20
2022-12-18T05:08:55.322Z,39.73
2022-12-18T05:11:22.014Z,37.40
2022-12-18T05:13:48.660Z,40.00
2022-12-18T05:16:15.801Z,32.67
2022-12-18T05:18:42.620Z,37.20
2022-12-18T05:21:09.507Z,35.63
2022-12-18T05:23:36.192Z,37.60
2022-12-18T05:26:04.726Z,35.63
2022-12-18T05:28:33.322Z,37.10
2022-12-18T05:31:01.711Z,34.00
2022-12-18T05:33:31.826Z,39.63
2022-12-18T05:36:00.826Z,28.70
2022-12-18T05:38:28.609Z,36.80
2022-12-18T05:40:55.287Z,31.47
2022-12-18T05:43:23.265Z,33.27
2022-12-18T05:45:50.523Z,34.50
2022-12-18T05:48:17.550Z,30.83
2022-12-18T05:50:46.499Z,28.07
2022-12-18T05:53:14.362Z,35.17
2022-12-18T05:55:41.822Z,26.97
2022-12-18T05:58:09.808Z,28.23
2022-12-18T06:00:41.983Z,29.37
2022-12-18T06:03:09.889Z,28.67
2022-12-18T06:05:38.395Z,28.30
2022-12-18T06:08:05.378Z,32.63
2022-12-18T06:10:32.320Z,22.37
2022-12-18T06:12:58.909Z,24.00
2022-12-18T06:15:25.497Z,26.10
2022-12-18T06:17:52.097Z,23.23
2022-12-18T06:20:18.696Z,25.20
2022-12-18T06:22:45.633Z,25.13
2022-12-18T06:25:12.191Z,26.67
2022-12-18T06:27:38.939Z,27.90
2022-12-18T06:30:06.032Z,26.80
2022-12-18T06:32:32.551Z,24.67
2022-12-18T06:34:59.057Z,26.70
2022-12-18T06:37:27.034Z,22.03
2022-12-18T06:40:30.718Z,25.13
2022-12-18T06:42:57.261Z,26.80
2022-12-18T06:45:23.845Z,23.27
2022-12-18T06:47:50.572Z,22.53
2022-12-18T06:50:17.764Z,18.27
2022-12-18T06:52:44.940Z,24.03
2022-12-18T06:55:12.182Z,19.80
2022-12-18T06:57:38.978Z,22.20
2022-12-18T07:00:07.300Z,25.63
2022-12-18T07:02:34.223Z,22.50
2022-12-18T07:05:04.770Z,18.30
2022-12-18T07:07:35.500Z,16.70
2022-12-18T07:10:02.059Z,19.20
2022-12-18T07:12:28.927Z,17.43
2022-12-18T07:14:55.429Z,16.90
2022-12-18T07:17:22.259Z,21.03
2022-12-18T07:19:48.778Z,15.03
2022-12-18T07:22:15.272Z,17.70
2022-12-18T07:24:41.894Z,20.13
2022-12-18T07:27:08.483Z,17.17
2022-12-18T07:29:35.932Z,17.57
2022-12-18T07:32:02.590Z,17.37
2022-12-18T07:34:29.148Z,14.07
2022-12-18T07:37:33.322Z,17.70
2022-12-18T07:39:59.849Z,14.53
2022-12-18T07:42:32.449Z,16.43
2022-12-18T07:44:59.988Z,18.13
2022-12-18T07:47:26.816Z,16.47
2022-12-18T07:49:53.884Z,16.50
2022-12-18T07:52:25.726Z,16.50
2022-12-18T07:54:52.546Z,15.53
2022-12-18T07:57:41.688Z,17.17
2022-12-18T08:00:06.271Z,15.43
2022-12-18T08:02:32.983Z,21.97
2022-12-18T08:04:59.722Z,22.70
2022-12-18T08:07:26.295Z,19.00
2022-12-18T08:09:52.880Z,16.17
2022-12-18T08:12:19.662Z,19.97
2022-12-18T08:14:46.150Z,18.80
2022-12-18T08:17:12.719Z,18.40
2022-12-18T08:19:39.261Z,23.77
2022-12-18T08:22:43.428Z,24.43
2022-12-18T08:25:10.128Z,27.70
2022-12-18T08:27:37.034Z,37.77
2022-12-18T08:30:04.988Z,33.13
2022-12-18T08:32:34.125Z,32.17
2022-12-18T08:35:00.961Z,27.20
2022-12-18T08:37:27.506Z,32.17
2022-12-18T08:39:54.020Z,34.30
2022-12-18T08:43:30.373Z,26.17
2022-12-18T08:45:57.796Z,20.70
2022-12-18T08:48:24.362Z,16.97
2022-12-18T08:51:00.813Z,17.20
2022-12-18T08:53:32.702Z,17.50
2022-12-18T08:56:02.312Z,14.77
2022-12-18T08:58:28.822Z,18.20
2022-12-18T09:00:55.362Z,17.90
2022-12-18T09:03:23.473Z,14.00
2022-12-18T09:05:50.150Z,11.90
2022-12-18T09:08:16.713Z,13.93
2022-12-18T09:10:47.635Z,11.80
2022-12-18T09:13:16.285Z,12.73
2022-12-18T09:15:49.288Z,12.80
2022-12-18T09:18:17.673Z,13.07
2022-12-18T09:21:22.106Z,11.17
2022-12-18T09:23:52.659Z,11.93
2022-12-18T09:26:19.374Z,10.93
2022-12-18T09:28:45.914Z,8.90
2022-12-18T09:31:15.477Z,9.17
2022-12-18T09:33:42.550Z,9.60
2022-12-18T09:36:11.032Z,8.17
2022-12-18T09:38:37.951Z,8.97
2022-12-18T09:41:27.097Z,9.07
2022-12-18T09:44:00.183Z,10.00
2022-12-18T09:46:32.075Z,8.47
2022-12-18T09:49:40.628Z,8.37
2022-12-18T09:52:22.298Z,8.23
2022-12-18T09:55:04.216Z,7.80
2022-12-18T09:58:37.317Z,9.27
2022-12-18T10:01:12.043Z,10.23
2022-12-18T10:03:38.743Z,8.23
2022-12-18T10:06:25.160Z,9.33
2022-12-18T10:09:37.958Z,9.00
2022-12-18T10:12:17.903Z,8.03
2022-12-18T10:15:00.548Z,10.13
2022-12-18T10:17:57.424Z,8.70
2022-12-18T10:20:39.131Z,9.90
2022-12-18T10:23:24.361Z,8.07
2022-12-18T10:26:01.988Z,8.27
2022-12-18T10:28:30.969Z,8.13
2022-12-18T10:30:57.716Z,7.30
2022-12-18T10:33:25.992Z,7.30
2022-12-18T10:35:52.828Z,8.53
2022-12-18T10:38:20.104Z,9.93
2022-12-18T10:40:51.896Z,12.63
2022-12-18T10:43:27.894Z,12.10
2022-12-18T10:46:01.306Z,12.67
2022-12-18T10:48:28.486Z,13.90
2022-12-18T10:51:12.965Z,15.83
2022-12-18T10:53:41.540Z,12.43
2022-12-18T10:56:08.020Z,11.90
2022-12-18T10:58:39.455Z,12.00
2022-12-18T11:01:14.937Z,12.77
2022-12-18T11:04:02.401Z,12.57
2022-12-18T11:06:30.384Z,12.83
2022-12-18T11:09:23.233Z,13.60
2022-12-18T11:11:53.249Z,16.93
2022-12-18T11:14:25.364Z,13.43
2022-12-18T11:19:40.757Z,11.43
2022-12-18T11:22:29.643Z,11.03
2022-12-18T11:25:32.138Z,14.63
2022-12-18T11:28:03.675Z,19.67
2022-12-18T11:30:39.165Z,20.87
2022-12-18T11:33:22.828Z,12.60
2022-12-18T11:36:04.563Z,20.10
2022-12-18T11:38:34.969Z,19.73
2022-12-18T11:41:05.321Z,10.80
2022-12-18T11:43:39.939Z,15.43
2022-12-18T11:46:20.410Z,15.43
2022-12-18T11:49:08.926Z,18.10
2022-12-18T11:51:54.634Z,14.07
2022-12-18T11:54:21.151Z,16.40
2022-12-18T11:57:09.719Z,19.07
2022-12-18T11:59:54.447Z,18.40
2022-12-18T12:02:42.151Z,18.20
2022-12-18T12:05:23.774Z,17.10
2022-12-18T12:07:56.322Z,20.97
2022-12-18T12:10:41.601Z,22.97
2022-12-18T12:13:50.198Z,21.13
2022-12-18T12:16:18.910Z,22.10
2022-12-18T12:18:57.524Z,12.67
2022-12-18T12:21:45.129Z,17.20
2022-12-18T12:24:35.534Z,18.70
2022-12-18T12:27:57.446Z,20.53
2022-12-18T12:30:31.951Z,20.50
2022-12-18T12:33:07.996Z,18.47
2022-12-18T12:35:47.780Z,17.40
2022-12-18T12:38:22.821Z,17.20
2022-12-18T12:41:00.566Z,15.50
2022-12-18T12:43:49.393Z,18.73
2022-12-18T12:46:19.080Z,15.47
2022-12-18T12:48:51.451Z,19.67
2022-12-18T12:51:35.449Z,17.80
2022-12-18T12:54:04.695Z,17.10
2022-12-18T12:56:43.517Z,17.10
2022-12-18T12:59:36.378Z,12.90
2022-12-18T13:02:18.940Z,16.33
2022-12-18T13:04:53.988Z,17.73
2022-12-18T13:07:24.163Z,15.57
2022-12-18T13:10:23.773Z,16.40
2022-12-18T13:13:50.210Z,17.50
2022-12-18T13:16:20.737Z,12.20
2022-12-18T13:18:52.615Z,17.50
2022-12-18T13:21:57.483Z,14.80
2022-12-18T13:24:30.603Z,12.30
2022-12-18T13:26:57.203Z,14.50
2022-12-18T13:29:45.181Z,11.30
2022-12-18T13:32:26.210Z,14.90
2022-12-18T13:35:23.060Z,13.07
2022-12-18T13:37:55.272Z,10.70
2022-12-18T13:40:40.215Z,13.20
2022-12-18T13:43:39.454Z,14.27
2022-12-18T13:46:19.137Z,13.43
2022-12-18T13:48:55.419Z,15.13
2022-12-18T13:51:23.279Z,12.50
2022-12-18T13:54:01.407Z,18.17
2022-12-18T13:56:31.914Z,17.50
2022-12-18T13:59:09.780Z,17.77
2022-12-18T14:01:36.594Z,13.60
2022-12-18T14:04:25.224Z,23.00
2022-12-18T14:07:10.929Z,13.47
2022-12-18T14:12:57.346Z,13.17
2022-12-18T14:15:30.190Z,15.47
2022-12-18T14:18:10.730Z,15.87
2022-12-18T14:20:40.852Z,16.33
2022-12-18T14:23:32.472Z,15.53
2022-12-18T14:26:05.343Z,21.77
2022-12-18T14:28:32.794Z,29.00
2022-12-18T14:30:59.480Z,24.13
2022-12-18T14:33:29.013Z,17.40
2022-12-18T14:36:01.703Z,23.50
2022-12-18T14:38:35.236Z,19.47
2022-12-18T14:41:07.528Z,18.50
2022-12-18T14:43:36.062Z,15.80
2022-12-18T14:46:04.386Z,15.57
2022-12-18T14:48:43.555Z,19.50
2022-12-18T14:51:20.075Z,17.47
2022-12-18T14:53:57.388Z,22.70
2022-12-18T14:56:32.134Z,13.63
2022-12-18T14:58:59.637Z,16.87
2022-12-18T15:01:48.121Z,15.43
2022-12-18T15:04:37.389Z,16.23
2022-12-18T15:07:12.894Z,20.20
2022-12-18T15:09:41.048Z,17.67
2022-12-18T15:12:23.841Z,17.77
2022-12-18T15:14:50.344Z,14.57
2022-12-18T15:17:23.279Z,21.40
2022-12-18T15:19:53.576Z,19.67
2022-12-18T15:22:32.221Z,15.07
2022-12-18T15:24:59.471Z,17.77
2022-12-18T15:28:04.423Z,16.27
2022-12-18T15:30:32.407Z,17.03
2022-12-18T15:33:25.714Z,16.53
2022-12-18T15:36:04.261Z,10.87
2022-12-18T15:38:32.016Z,16.47
2022-12-18T15:40:58.725Z,16.07
2022-12-18T15:43:34.913Z,14.50
2022-12-18T15:46:02.945Z,18.20
2022-12-18T15:48:29.704Z,127.57
2022-12-18T15:50:58.229Z,16.37
2022-12-18T15:53:26.671Z,13.77
2022-12-18T15:56:11.672Z,12.17
2022-12-18T15:58:38.908Z,13.00
2022-12-18T16:01:05.669Z,17.23
2022-12-18T16:03:32.476Z,15.37
2022-12-18T16:06:01.244Z,12.57
2022-12-18T16:08:31.702Z,13.50
2022-12-18T16:10:59.061Z,14.77
2022-12-18T16:13:25.575Z,11.63
2022-12-18T16:15:52.197Z,12.17
2022-12-18T16:18:18.753Z,12.53
2022-12-18T16:20:45.356Z,15.00
2022-12-18T16:23:11.905Z,14.13
2022-12-18T16:25:38.384Z,15.90
2022-12-18T16:28:05.425Z,16.47
2022-12-18T16:30:35.756Z,12.57
2022-12-18T16:33:05.668Z,21.20
2022-12-18T16:35:34.388Z,17.17
2022-12-18T16:38:00.877Z,17.90
2022-12-18T16:40:27.568Z,26.87
2022-12-18T16:42:54.095Z,21.90
2022-12-18T16:45:20.979Z,15.87
2022-12-18T16:47:47.554Z,14.47
2022-12-18T16:50:14.851Z,19.93
2022-12-18T16:52:41.730Z,14.90
2022-12-18T16:55:08.909Z,13.30
2022-12-18T16:57:35.556Z,13.97
2022-12-18T17:00:05.438Z,12.87
2022-12-18T17:02:32.944Z,11.53
2022-12-18T17:05:37.687Z,14.13
2022-12-18T17:08:04.470Z,14.57
2022-12-18T17:10:31.245Z,13.00
2022-12-18T17:12:57.866Z,17.50
2022-12-18T17:15:24.430Z,14.17
2022-12-18T17:17:51.008Z,15.70
2022-12-18T17:20:17.531Z,21.10
2022-12-18T17:22:46.381Z,16.30
2022-12-18T17:25:13.130Z,13.43
2022-12-18T17:28:17.315Z,14.17
2022-12-18T17:30:43.923Z,15.00
2022-12-18T17:33:10.616Z,17.27
2022-12-18T17:35:37.216Z,17.23
2022-12-18T17:38:03.990Z,17.40
2022-12-18T17:40:33.334Z,18.13
2022-12-18T17:43:00.003Z,19.63
2022-12-18T17:45:26.560Z,16.67
2022-12-18T17:47:59.629Z,16.77
2022-12-18T17:50:26.505Z,20.63
2022-12-18T17:53:31.147Z,19.40
2022-12-18T17:56:00.986Z,19.53
2022-12-18T17:58:28.814Z,20.87
2022-12-18T18:00:55.466Z,19.57
2022-12-18T18:03:22.097Z,22.07
2022-12-18T18:05:49.227Z,19.10
2022-12-18T18:08:15.760Z,21.03
2022-12-18T18:10:42.627Z,23.03
2022-12-18T18:13:42.069Z,22.50
2022-12-18T18:16:12.997Z,49.47
2022-12-18T18:18:40.000Z,30.03
2022-12-18T18:21:08.275Z,25.63
2022-12-18T18:23:35.622Z,28.07
2022-12-18T18:26:06.946Z,24.33
2022-12-18T18:28:34.342Z,28.20
2022-12-18T18:31:09.189Z,37.23
2022-12-18T18:33:35.815Z,55.40
2022-12-18T18:36:02.317Z,45.27
2022-12-18T18:38:29.193Z,77.77
2022-12-18T18:41:03.871Z,128.20
2022-12-18T18:43:31.129Z,24.20
2022-12-18T18:45:59.282Z,20.83
2022-12-18T18:48:26.754Z,38.73
2022-12-18T18:50:57.717Z,44.20
2022-12-18T18:53:24.293Z,80.93
2022-12-18T18:56:16.584Z,59.27
2022-12-18T18:59:14.799Z,57.53
2022-12-18T19:01:41.462Z,23.83
2022-12-18T19:04:08.315Z,35.90
2022-12-18T19:06:34.841Z,44.10
2022-12-18T19:09:04.810Z,29.00
2022-12-18T19:11:49.946Z,23.77
2022-12-18T19:14:17.074Z,23.27
2022-12-18T19:16:45.457Z,22.10
2022-12-18T19:19:13.072Z,28.50
2022-12-18T19:21:40.235Z,23.53
2022-12-18T19:24:07.067Z,25.50
2022-12-18T19:26:33.546Z,29.90
2022-12-18T19:29:08.145Z,23.37
2022-12-18T19:31:36.677Z,30.33
2022-12-18T19:34:06.775Z,28.47
2022-12-18T19:36:35.288Z,23.50
2022-12-18T19:39:02.314Z,26.47
2022-12-18T19:41:31.305Z,24.30
2022-12-18T19:43:59.781Z,23.90
2022-12-18T19:46:26.439Z,25.10
2022-12-18T19:48:53.643Z,24.13
2022-12-18T19:51:25.991Z,26.43
2022-12-18T19:53:58.126Z,32.73
2022-12-18T19:56:27.179Z,22.37
2022-12-18T19:58:54.600Z,22.03
2022-12-18T20:01:23.449Z,24.23
2022-12-18T20:03:52.392Z,23.70
2022-12-18T20:06:26.093Z,20.50
2022-12-18T20:09:29.889Z,26.67
2022-12-18T20:11:56.367Z,21.80
2022-12-18T20:14:23.893Z,21.80
2022-12-18T20:17:28.555Z,23.20
2022-12-18T20:19:56.213Z,24.80
2022-12-18T20:22:23.885Z,26.40
2022-12-18T20:24:50.664Z,25.20
2022-12-18T20:27:19.585Z,24.63
2022-12-18T20:29:46.228Z,27.20
2022-12-18T20:32:13.147Z,24.10
2022-12-18T20:34:39.685Z,24.10
2022-12-18T20:37:06.230Z,24.00
2022-12-18T20:39:34.056Z,23.33
2022-12-18T20:42:01.315Z,19.97
2022-12-18T20:44:27.764Z,22.13
2022-12-18T20:46:56.896Z,24.90
2022-12-18T20:49:24.701Z,22.27
2022-12-18T20:51:52.849Z,24.20
2022-12-18T20:54:19.837Z,21.47
2022-12-18T20:56:46.609Z,23.63
2022-12-18T20:59:13.094Z,21.73
2022-12-18T21:01:40.840Z,21.03
2022-12-18T21:04:15.281Z,24.13
2022-12-18T21:06:49.415Z,21.20
2022-12-18T21:09:18.170Z,24.90
2022-12-18T21:12:03.312Z,23.67
2022-12-18T21:14:33.324Z,21.77
2022-12-18T21:17:01.837Z,25.00
2022-12-18T21:19:29.103Z,20.40
2022-12-18T21:22:32.797Z,29.40
2022-12-18T21:24:59.296Z,26.50
2022-12-18T21:28:03.164Z,23.93
2022-12-18T21:30:29.637Z,26.10
2022-12-18T21:32:56.211Z,22.27
2022-12-18T21:35:22.702Z,26.43
2022-12-18T21:37:50.998Z,24.17
2022-12-18T21:40:17.490Z,24.27
2022-12-18T21:43:02.875Z,26.37
2022-12-18T21:45:29.416Z,21.10
2022-12-18T21:47:55.863Z,27.03
2022-12-18T21:50:22.352Z,27.23
2022-12-18T21:52:48.813Z,22.97
2022-12-18T21:55:15.474Z,27.80
2022-12-18T21:57:42.031Z,21.60
2022-12-18T22:00:18.871Z,25.20
2022-12-18T22:02:46.247Z,26.23
2022-12-18T22:05:12.948Z,23.53
2022-12-18T22:07:39.815Z,21.87
2022-12-18T22:10:06.854Z,23.90
2022-12-18T22:12:43.574Z,23.60
2022-12-18T22:15:12.040Z,23.87
2022-12-18T22:17:41.272Z,23.60
2022-12-18T22:20:09.389Z,23.33
2022-12-18T22:22:36.064Z,22.93
2022-12-18T22:25:02.703Z,29.27
2022-12-18T22:27:29.180Z,22.93
2022-12-18T22:30:04.755Z,22.70
2022-12-18T22:32:32.987Z,25.13
2022-12-18T22:35:05.790Z,24.87
2022-12-18T22:37:34.718Z,23.63
2022-12-18T22:40:03.452Z,23.90
2022-12-18T22:42:31.016Z,27.20
2022-12-18T22:44:57.479Z,22.53
2022-12-18T22:47:28.001Z,21.60
2022-12-18T22:49:56.145Z,22.67
2022-12-18T22:52:23.395Z,22.90
2022-12-18T22:54:51.536Z,21.23
2022-12-18T22:57:21.690Z,22.40
2022-12-18T22:59:49.125Z,21.90
2022-12-18T23:02:15.716Z,25.03
2022-12-18T23:04:42.292Z,25.90
2022-12-18T23:07:09.013Z,23.67
2022-12-18T23:09:37.761Z,29.80
2022-12-18T23:12:04.850Z,25.90
2022-12-18T23:14:31.794Z,23.97
2022-12-18T23:16:58.505Z,23.07
2022-12-18T23:19:26.141Z,26.67
2022-12-18T23:21:52.605Z,29.20
2022-12-18T23:24:21.286Z,23.17
2022-12-18T23:26:47.818Z,22.80
2022-12-18T23:29:14.505Z,25.50
2022-12-18T23:31:41.102Z,24.57
2022-12-18T23:34:08.101Z,28.40
2022-12-18T23:36:45.960Z,31.90
2022-12-18T23:39:28.706Z,26.07
2022-12-18T23:41:58.285Z,27.10
2022-12-18T23:44:25.437Z,27.70
2022-12-18T23:46:51.973Z,29.90
2022-12-18T23:49:18.548Z,31.30
2022-12-18T23:51:45.039Z,36.00
2022-12-18T23:54:11.480Z,27.47
2022-12-18T23:56:37.949Z,27.87
2022-12-18T23:59:04.621Z,26.00
